Time;durP1;ratioP1;P1;durP2;ratioP2;P2;SDS_P1;SDS_P2;PMS_P1;PMS_P2;Temp;Humidity;BMP_temperature;BMP_pressure;BME280_temperature;BME280_humidity;BME280_pressure;Samples;Min_cycle;Max_cycle;Signal;HPM_P1;HPM_P2
2021/06/28 00:00:32;;;;;;;1.52;1.42;;;;;;;;;;5049767;28;20201;-84
2021/06/28 00:03:02;;;;;;;1.60;1.50;;;;;;;;;;5049601;28;20644;-85
2021/06/28 00:05:29;;;;;;;1.70;1.58;;;;;;;;;;5049478;28;20206;-87
2021/06/28 00:07:57;;;;;;;1.60;1.50;;;;;;;;;;5049620;28;20221;-85
2021/06/28 00:10:28;;;;;;;1.70;1.60;;;;;;;;;;5049944;28;20611;-85
2021/06/28 00:13:00;;;;;;;1.35;1.25;;;;;;;;;;5049427;28;20193;-86
2021/06/28 00:15:31;;;;;;;1.90;1.33;;;;;;;;;;5049542;28;20308;-86
2021/06/28 00:18:00;;;;;;;1.35;1.27;;;;;;;;;;5050628;28;20232;-85
2021/06/28 00:20:30;;;;;;;1.65;1.55;;;;;;;;;;5051497;28;20237;-86
2021/06/28 00:22:57;;;;;;;1.73;1.63;;;;;;;;;;5050788;28;20178;-85
2021/06/28 00:25:27;;;;;;;1.63;1.52;;;;;;;;;;5043096;28;20303;-86
2021/06/28 00:27:54;;;;;;;1.40;1.30;;;;;;;;;;5050743;28;20699;-86
2021/06/28 00:30:23;;;;;;;1.73;1.63;;;;;;;;;;5050975;28;20182;-86
2021/06/28 00:32:51;;;;;;;1.58;1.48;;;;;;;;;;5050972;28;20197;-85
2021/06/28 00:35:21;;;;;;;1.65;1.55;;;;;;;;;;5051056;28;20210;-86
2021/06/28 00:37:50;;;;;;;1.52;1.42;;;;;;;;;;5050775;28;20298;-85
2021/06/28 00:40:19;;;;;;;1.95;1.75;;;;;;;;;;5050733;28;20206;-85
2021/06/28 00:42:49;;;;;;;1.67;1.58;;;;;;;;;;5051203;28;20577;-86
2021/06/28 00:45:23;;;;;;;1.25;1.25;;;;;;;;;;5050779;28;20707;-86
2021/06/28 00:47:52;;;;;;;1.65;1.55;;;;;;;;;;5050479;28;20253;-86
2021/06/28 00:50:22;;;;;;;1.90;1.80;;;;;;;;;;5050967;28;20194;-85
2021/06/28 00:52:56;;;;;;;1.67;1.58;;;;;;;;;;5050391;28;20687;-86
2021/06/28 00:55:24;;;;;;;1.40;1.30;;;;;;;;;;5044631;28;20202;-85
2021/06/28 00:57:54;;;;;;;1.50;1.40;;;;;;;;;;5054096;28;20696;-85
2021/06/28 01:00:23;;;;;;;1.38;1.38;;;;;;;;;;5054017;28;20197;-85
2021/06/28 01:02:52;;;;;;;1.40;1.40;;;;;;;;;;5054264;28;20636;-85
2021/06/28 01:05:25;;;;;;;1.33;1.30;;;;;;;;;;5054167;28;20212;-86
2021/06/28 01:07:53;;;;;;;1.60;1.50;;;;;;;;;;5054256;28;20217;-85
2021/06/28 01:10:21;;;;;;;1.27;1.27;;;;;;;;;;5054061;28;20192;-86
2021/06/28 01:12:51;;;;;;;1.27;1.27;;;;;;;;;;5054451;28;20210;-85
2021/06/28 01:15:20;;;;;;;1.48;1.38;;;;;;;;;;5054267;28;20217;-86
2021/06/28 01:17:49;;;;;;;1.60;1.50;;;;;;;;;;5054154;28;20221;-85
2021/06/28 01:20:19;;;;;;;1.27;1.25;;;;;;;;;;5054408;28;20185;-85
2021/06/28 01:22:52;;;;;;;0.90;0.90;;;;;;;;;;5053643;28;20208;-85
2021/06/28 01:25:24;;;;;;;1.40;1.40;;;;;;;;;;5053866;28;20209;-86
2021/06/28 01:27:53;;;;;;;1.58;1.48;;;;;;;;;;5053379;28;20209;-85
2021/06/28 01:30:25;;;;;;;1.27;1.27;;;;;;;;;;5053750;28;20190;-86
2021/06/28 01:32:53;;;;;;;1.13;1.13;;;;;;;;;;5046332;28;20194;-85
2021/06/28 01:35:21;;;;;;;1.52;1.42;;;;;;;;;;5033723;28;20228;-85
2021/06/28 01:37:48;;;;;;;1.42;1.30;;;;;;;;;;5033517;28;20215;-87
2021/06/28 01:40:18;;;;;;;1.73;1.63;;;;;;;;;;5033086;28;20191;-86
2021/06/28 01:42:48;;;;;;;1.67;1.58;;;;;;;;;;5061668;28;20192;-85
2021/06/28 01:45:19;;;;;;;1.50;1.40;;;;;;;;;;5073645;28;20186;-85
2021/06/28 01:47:48;;;;;;;1.55;1.45;;;;;;;;;;5073415;28;20227;-86
2021/06/28 01:50:17;;;;;;;1.50;1.50;;;;;;;;;;5073654;28;20181;-86
2021/06/28 01:52:46;;;;;;;1.50;1.40;;;;;;;;;;5072883;28;20223;-85
2021/06/28 01:55:15;;;;;;;1.65;1.55;;;;;;;;;;5073305;28;20191;-86
2021/06/28 01:57:44;;;;;;;2.85;1.80;;;;;;;;;;5073173;28;20233;-86
2021/06/28 02:00:18;;;;;;;1.92;1.80;;;;;;;;;;5073153;28;20300;-85
2021/06/28 02:03:53;;;;;;;1.70;1.60;;;;;;;;;;5081055;28;20178;-86
2021/06/28 02:06:22;;;;;;;1.60;1.50;;;;;;;;;;5032635;28;20196;-87
2021/06/28 02:08:50;;;;;;;1.90;1.80;;;;;;;;;;5069223;28;20324;-85
2021/06/28 02:11:18;;;;;;;1.42;1.40;;;;;;;;;;5046302;28;20202;-85
2021/06/28 02:13:46;;;;;;;1.70;1.60;;;;;;;;;;5054467;28;20644;-85
2021/06/28 02:16:16;;;;;;;2.58;2.38;;;;;;;;;;5048606;28;20206;-85
2021/06/28 02:18:46;;;;;;;2.78;2.58;;;;;;;;;;5042295;28;20309;-85
2021/06/28 02:21:13;;;;;;;2.22;1.83;;;;;;;;;;5044875;28;20840;-85
2021/06/28 02:23:41;;;;;;;2.25;2.05;;;;;;;;;;5054988;28;20202;-86
2021/06/28 02:26:14;;;;;;;2.75;2.55;;;;;;;;;;5055373;28;20182;-86
2021/06/28 02:28:49;;;;;;;2.50;2.35;;;;;;;;;;5054523;28;20217;-86
2021/06/28 02:31:21;;;;;;;2.50;2.30;;;;;;;;;;5054308;28;20197;-87
2021/06/28 02:33:51;;;;;;;3.30;3.00;;;;;;;;;;5053684;28;20201;-87
2021/06/28 02:36:28;;;;;;;2.22;2.13;;;;;;;;;;5052920;28;20230;-87
2021/06/28 02:38:58;;;;;;;2.20;2.10;;;;;;;;;;5053816;28;20210;-87
2021/06/28 02:41:26;;;;;;;2.08;1.98;;;;;;;;;;5043807;28;20597;-89
2021/06/28 02:44:31;;;;;;;3.30;3.10;;;;;;;;;;5041044;28;20202;-89
2021/06/28 02:47:46;;;;;;;1.90;1.80;;;;;;;;;;5053339;28;20695;-89
2021/06/28 02:50:21;;;;;;;2.90;2.70;;;;;;;;;;5053997;28;20189;-90
2021/06/28 02:52:50;;;;;;;2.80;2.60;;;;;;;;;;5053163;28;20636;-89
2021/06/28 02:55:29;;;;;;;2.83;2.63;;;;;;;;;;5053228;28;20643;-90
2021/06/28 02:58:05;;;;;;;2.60;2.40;;;;;;;;;;5052898;28;20264;-89
2021/06/28 03:00:34;;;;;;;2.78;2.58;;;;;;;;;;5053472;28;20189;-89
2021/06/28 03:03:37;;;;;;;3.10;2.90;;;;;;;;;;5052378;28;20556;-89
2021/06/28 03:06:27;;;;;;;2.58;2.38;;;;;;;;;;5052053;28;20185;-90
2021/06/28 03:09:01;;;;;;;3.10;2.90;;;;;;;;;;5052592;28;20190;-90
2021/06/28 03:11:30;;;;;;;2.78;2.58;;;;;;;;;;5055644;28;20194;-89
2021/06/28 03:14:02;;;;;;;4.45;3.50;;;;;;;;;;5050427;28;20210;-85
2021/06/28 03:16:29;;;;;;;2.85;2.65;;;;;;;;;;5051110;28;20217;-86
2021/06/28 03:18:59;;;;;;;3.17;2.97;;;;;;;;;;5052367;28;20202;-87
2021/06/28 03:21:35;;;;;;;3.53;3.22;;;;;;;;;;5052501;28;20202;-87
2021/06/28 03:24:04;;;;;;;3.78;3.40;;;;;;;;;;5052651;28;20228;-85
2021/06/28 03:26:34;;;;;;;2.70;2.50;;;;;;;;;;5046370;28;20198;-86
2021/06/28 03:29:02;;;;;;;4.00;3.70;;;;;;;;;;5069416;28;20197;-86
2021/06/28 03:31:37;;;;;;;3.33;3.05;;;;;;;;;;5060073;28;20190;-86
2021/06/28 03:34:10;;;;;;;3.13;2.92;;;;;;;;;;5052476;28;20181;-86
2021/06/28 03:36:43;;;;;;;3.85;3.55;;;;;;;;;;5052448;28;20229;-86
2021/06/28 03:39:15;;;;;;;3.55;3.28;;;;;;;;;;5052012;28;20201;-85
2021/06/28 03:41:43;;;;;;;3.22;3.03;;;;;;;;;;5045475;28;20273;-85
2021/06/28 03:44:11;;;;;;;2.67;2.47;;;;;;;;;;5052860;28;20189;-88
2021/06/28 03:46:38;;;;;;;2.83;2.63;;;;;;;;;;5052239;28;20197;-85
2021/06/28 03:49:07;;;;;;;2.75;2.55;;;;;;;;;;5046315;28;20290;-85
2021/06/28 03:51:48;;;;;;;3.13;2.92;;;;;;;;;;5058018;28;20245;-87
2021/06/28 03:54:15;;;;;;;3.05;2.85;;;;;;;;;;5062524;28;20707;-87
2021/06/28 03:56:43;;;;;;;3.00;2.80;;;;;;;;;;5053552;28;20225;-85
2021/06/28 03:59:10;;;;;;;2.67;2.55;;;;;;;;;;5051108;28;20577;-85
2021/06/28 04:01:38;;;;;;;3.20;3.00;;;;;;;;;;5051192;28;20204;-86
2021/06/28 04:04:05;;;;;;;1.90;1.80;;;;;;;;;;5051225;28;20202;-85
2021/06/28 04:06:34;;;;;;;2.08;1.98;;;;;;;;;;5051032;28;20573;-85
2021/06/28 04:09:04;;;;;;;2.15;2.05;;;;;;;;;;5051351;28;20202;-85
2021/06/28 04:11:31;;;;;;;1.85;1.75;;;;;;;;;;5050896;28;20201;-85
2021/06/28 04:13:59;;;;;;;1.90;1.80;;;;;;;;;;5051373;28;20605;-85
2021/06/28 04:16:27;;;;;;;2.00;1.83;;;;;;;;;;5050678;28;20205;-84
2021/06/28 04:18:54;;;;;;;1.70;1.60;;;;;;;;;;5051349;28;21107;-85
2021/06/28 04:21:22;;;;;;;1.20;1.20;;;;;;;;;;5051066;28;20194;-85
2021/06/28 04:23:49;;;;;;;1.60;1.50;;;;;;;;;;5051735;28;20187;-86
2021/06/28 04:26:18;;;;;;;1.50;1.40;;;;;;;;;;5051781;28;20288;-89
2021/06/28 04:28:46;;;;;;;1.38;1.27;;;;;;;;;;5051695;28;20225;-84
2021/06/28 04:31:13;;;;;;;1.40;1.30;;;;;;;;;;5056778;28;20224;-85
2021/06/28 04:33:40;;;;;;;1.25;1.20;;;;;;;;;;5056992;28;20217;-87
2021/06/28 04:36:08;;;;;;;1.50;1.40;;;;;;;;;;5057997;28;20198;-84
2021/06/28 04:38:36;;;;;;;1.23;1.23;;;;;;;;;;5057094;28;20225;-85
2021/06/28 04:41:03;;;;;;;1.10;1.10;;;;;;;;;;5057231;28;20615;-85
2021/06/28 04:43:32;;;;;;;1.15;1.15;;;;;;;;;;5055332;28;20190;-85
2021/06/28 04:45:59;;;;;;;1.10;1.10;;;;;;;;;;5057982;28;20743;-85
2021/06/28 04:48:27;;;;;;;1.90;1.80;;;;;;;;;;5058268;28;20235;-85
2021/06/28 04:50:54;;;;;;;1.70;1.52;;;;;;;;;;5055997;28;20205;-84
2021/06/28 04:53:22;;;;;;;1.80;1.70;;;;;;;;;;5061730;28;20188;-84
2021/06/28 04:55:49;;;;;;;2.55;2.35;;;;;;;;;;5057280;28;20197;-88
2021/06/28 04:58:17;;;;;;;2.80;2.60;;;;;;;;;;5055685;28;20225;-85
2021/06/28 05:00:46;;;;;;;2.10;2.00;;;;;;;;;;5058552;28;20257;-85
2021/06/28 05:03:13;;;;;;;2.20;2.10;;;;;;;;;;5058660;28;20272;-85
2021/06/28 05:05:41;;;;;;;1.80;1.70;;;;;;;;;;5056287;28;20450;-84
2021/06/28 05:08:08;;;;;;;2.00;1.90;;;;;;;;;;5056426;28;20277;-84
2021/06/28 05:10:36;;;;;;;2.13;2.03;;;;;;;;;;5057342;28;20194;-85
2021/06/28 05:13:04;;;;;;;2.47;2.00;;;;;;;;;;5056854;28;20225;-85
2021/06/28 05:15:32;;;;;;;1.90;1.80;;;;;;;;;;5060048;28;20272;-84
2021/06/28 05:18:01;;;;;;;1.75;1.65;;;;;;;;;;5059199;28;20248;-86
2021/06/28 05:20:28;;;;;;;1.98;1.83;;;;;;;;;;5057591;28;20197;-85
2021/06/28 05:22:56;;;;;;;1.80;1.70;;;;;;;;;;5058785;28;20204;-85
2021/06/28 05:25:23;;;;;;;2.15;2.05;;;;;;;;;;5058261;28;20212;-85
2021/06/28 05:27:51;;;;;;;2.08;1.92;;;;;;;;;;5055437;28;20224;-84
2021/06/28 05:30:20;;;;;;;2.67;2.47;;;;;;;;;;5056737;28;20288;-83
2021/06/28 05:32:47;;;;;;;2.30;2.10;;;;;;;;;;5056035;28;20671;-84
2021/06/28 05:35:16;;;;;;;2.20;2.03;;;;;;;;;;5055551;28;20197;-86
2021/06/28 05:37:44;;;;;;;1.90;1.80;;;;;;;;;;5056634;28;20229;-85
2021/06/28 05:40:13;;;;;;;2.50;2.30;;;;;;;;;;5055476;28;20645;-84
2021/06/28 05:42:41;;;;;;;2.78;2.58;;;;;;;;;;5055951;28;20197;-85
2021/06/28 05:45:11;;;;;;;2.42;2.22;;;;;;;;;;5056160;28;20289;-84
2021/06/28 05:47:39;;;;;;;2.30;2.20;;;;;;;;;;5055858;28;20232;-85
2021/06/28 05:50:11;;;;;;;2.72;2.60;;;;;;;;;;5055766;28;20190;-85
2021/06/28 05:52:40;;;;;;;2.10;2.00;;;;;;;;;;5055937;28;20283;-85
2021/06/28 05:55:09;;;;;;;2.20;2.10;;;;;;;;;;5056106;28;20241;-85
2021/06/28 05:57:36;;;;;;;1.70;1.60;;;;;;;;;;5055825;28;20234;-87
2021/06/28 06:00:06;;;;;;;1.75;1.65;;;;;;;;;;5055235;28;20209;-85
2021/06/28 06:02:34;;;;;;;2.20;2.03;;;;;;;;;;5055641;28;20193;-84
2021/06/28 06:05:02;;;;;;;2.00;1.90;;;;;;;;;;5055083;28;20684;-85
2021/06/28 06:07:29;;;;;;;2.10;2.00;;;;;;;;;;5055940;28;20755;-84
2021/06/28 06:09:58;;;;;;;1.90;1.80;;;;;;;;;;5055307;28;20671;-84
2021/06/28 06:12:26;;;;;;;1.95;1.85;;;;;;;;;;5047475;28;20225;-86
2021/06/28 06:14:53;;;;;;;2.00;1.90;;;;;;;;;;5054864;28;20190;-84
2021/06/28 06:17:20;;;;;;;1.75;1.65;;;;;;;;;;5054314;28;20232;-84
2021/06/28 06:19:48;;;;;;;2.05;1.95;;;;;;;;;;5054596;28;20206;-84
2021/06/28 06:22:15;;;;;;;2.08;1.98;;;;;;;;;;5054402;28;20296;-85
2021/06/28 06:24:43;;;;;;;2.47;2.28;;;;;;;;;;5051892;28;20198;-85
2021/06/28 06:27:11;;;;;;;2.25;2.15;;;;;;;;;;5051437;28;20213;-85
2021/06/28 06:29:39;;;;;;;2.72;2.30;;;;;;;;;;5051538;28;20193;-85
2021/06/28 06:32:08;;;;;;;2.10;2.00;;;;;;;;;;5051483;28;20197;-85
2021/06/28 06:34:35;;;;;;;2.58;2.40;;;;;;;;;;5051420;28;20210;-85
2021/06/28 06:37:03;;;;;;;2.30;2.20;;;;;;;;;;5051762;28;20588;-85
2021/06/28 06:39:31;;;;;;;2.72;2.53;;;;;;;;;;5051537;28;20243;-85
2021/06/28 06:41:58;;;;;;;2.22;2.13;;;;;;;;;;5051298;28;20291;-85
2021/06/28 06:44:27;;;;;;;2.38;2.17;;;;;;;;;;5050875;28;20182;-85
2021/06/28 06:46:55;;;;;;;2.35;2.25;;;;;;;;;;5051266;28;20726;-85
2021/06/28 06:49:22;;;;;;;2.15;1.95;;;;;;;;;;5051220;28;20201;-85
2021/06/28 06:51:50;;;;;;;2.97;2.78;;;;;;;;;;5050355;28;20197;-85
2021/06/28 06:54:17;;;;;;;2.72;2.53;;;;;;;;;;5050829;28;20189;-85
2021/06/28 06:56:45;;;;;;;2.60;2.40;;;;;;;;;;5050660;28;20225;-85
2021/06/28 06:59:12;;;;;;;2.00;1.90;;;;;;;;;;5050228;28;20247;-86
2021/06/28 07:01:42;;;;;;;2.72;2.53;;;;;;;;;;5050899;28;20209;-85
2021/06/28 07:04:09;;;;;;;2.58;2.47;;;;;;;;;;5051174;28;20624;-86
2021/06/28 07:06:37;;;;;;;2.65;2.53;;;;;;;;;;5051215;28;20205;-85
2021/06/28 07:09:05;;;;;;;2.40;2.30;;;;;;;;;;5050621;28;20579;-86
2021/06/28 07:11:32;;;;;;;2.65;2.50;;;;;;;;;;5050600;28;20201;-86
2021/06/28 07:14:00;;;;;;;2.90;2.70;;;;;;;;;;5050756;28;20201;-86
2021/06/28 07:16:31;;;;;;;2.63;2.53;;;;;;;;;;5050678;28;20212;-85
2021/06/28 07:19:00;;;;;;;2.90;2.70;;;;;;;;;;5050880;28;20217;-85
2021/06/28 07:21:28;;;;;;;3.00;2.80;;;;;;;;;;5050465;28;20194;-85
2021/06/28 07:23:57;;;;;;;3.33;3.10;;;;;;;;;;5050577;28;20208;-86
2021/06/28 07:26:25;;;;;;;3.33;3.03;;;;;;;;;;5043345;28;20207;-86
2021/06/28 07:28:53;;;;;;;2.40;2.17;;;;;;;;;;5051558;28;20194;-85
2021/06/28 07:31:21;;;;;;;3.60;3.30;;;;;;;;;;5050444;28;20210;-85
2021/06/28 07:33:48;;;;;;;2.80;2.58;;;;;;;;;;5050478;28;20208;-86
2021/06/28 07:36:17;;;;;;;2.65;2.50;;;;;;;;;;5050195;28;20266;-86
2021/06/28 07:38:44;;;;;;;3.10;2.90;;;;;;;;;;5050050;28;20229;-86
2021/06/28 07:41:12;;;;;;;2.92;2.75;;;;;;;;;;5050533;28;20189;-86
2021/06/28 07:43:39;;;;;;;2.92;2.72;;;;;;;;;;5050253;28;20197;-86
2021/06/28 07:46:07;;;;;;;2.40;2.20;;;;;;;;;;5050063;28;20212;-85
2021/06/28 07:48:35;;;;;;;3.03;2.83;;;;;;;;;;5050514;28;20233;-86
2021/06/28 07:51:03;;;;;;;2.72;2.53;;;;;;;;;;5050005;28;20209;-85
2021/06/28 07:53:32;;;;;;;2.72;2.53;;;;;;;;;;5050423;28;20185;-85
2021/06/28 07:56:14;;;;;;;2.25;2.15;;;;;;;;;;5050542;28;20277;-86
2021/06/28 07:58:42;;;;;;;2.78;2.55;;;;;;;;;;5049982;28;20233;-84
2021/06/28 08:01:10;;;;;;;2.58;2.45;;;;;;;;;;5050626;28;20202;-86
2021/06/28 08:03:43;;;;;;;3.92;3.55;;;;;;;;;;5051289;28;20247;-85
2021/06/28 08:06:11;;;;;;;3.15;2.95;;;;;;;;;;5054740;28;20209;-86
2021/06/28 08:08:40;;;;;;;2.20;2.10;;;;;;;;;;5054555;28;20251;-86
2021/06/28 08:11:09;;;;;;;2.10;2.00;;;;;;;;;;5054514;28;20294;-86
2021/06/28 08:13:39;;;;;;;2.25;2.15;;;;;;;;;;5054921;28;20255;-85
2021/06/28 08:16:06;;;;;;;2.00;1.90;;;;;;;;;;5054855;28;20600;-85
2021/06/28 08:18:35;;;;;;;2.20;2.10;;;;;;;;;;5054475;28;20213;-86
2021/06/28 08:21:02;;;;;;;2.15;2.05;;;;;;;;;;5054230;28;20213;-86
2021/06/28 08:23:32;;;;;;;2.35;2.13;;;;;;;;;;5054259;28;20204;-85
2021/06/28 08:26:00;;;;;;;2.30;2.20;;;;;;;;;;5054158;28;20198;-86
2021/06/28 08:28:28;;;;;;;2.90;2.70;;;;;;;;;;5053130;28;20232;-86
2021/06/28 08:30:55;;;;;;;2.50;2.30;;;;;;;;;;5053501;28;20202;-86
2021/06/28 08:33:23;;;;;;;2.05;1.95;;;;;;;;;;5053954;28;20508;-86
2021/06/28 08:35:50;;;;;;;2.67;2.47;;;;;;;;;;5053896;28;20198;-86
2021/06/28 08:38:18;;;;;;;2.58;2.10;;;;;;;;;;5053601;28;20228;-86
2021/06/28 08:40:47;;;;;;;2.50;2.40;;;;;;;;;;5053987;28;20577;-86
2021/06/28 08:43:16;;;;;;;2.60;2.50;;;;;;;;;;5053709;28;20651;-86
2021/06/28 08:45:45;;;;;;;2.85;2.65;;;;;;;;;;5053687;28;20186;-86
2021/06/28 08:48:13;;;;;;;3.58;3.38;;;;;;;;;;5053650;28;20214;-87
2021/06/28 08:50:42;;;;;;;2.55;2.45;;;;;;;;;;5054116;28;20201;-86
2021/06/28 08:53:10;;;;;;;2.35;2.25;;;;;;;;;;5054045;28;20185;-86
2021/06/28 08:55:40;;;;;;;2.47;2.35;;;;;;;;;;5053333;28;20212;-87
2021/06/28 08:58:07;;;;;;;2.22;2.13;;;;;;;;;;5053609;28;20233;-87
2021/06/28 09:00:36;;;;;;;2.80;2.60;;;;;;;;;;5054175;28;20202;-86
2021/06/28 09:03:08;;;;;;;2.35;2.15;;;;;;;;;;5053993;28;20197;-87
2021/06/28 09:05:52;;;;;;;2.75;2.55;;;;;;;;;;5054244;28;20554;-86
2021/06/28 09:08:22;;;;;;;2.42;2.33;;;;;;;;;;5053521;28;20220;-86
2021/06/28 09:10:50;;;;;;;2.38;2.28;;;;;;;;;;5053596;28;20611;-86
2021/06/28 09:13:18;;;;;;;2.45;2.15;;;;;;;;;;5054407;28;20193;-86
2021/06/28 09:15:49;;;;;;;2.95;2.75;;;;;;;;;;5052989;28;20584;-86
2021/06/28 09:18:24;;;;;;;2.10;2.00;;;;;;;;;;5054130;28;20218;-87
2021/06/28 09:21:04;;;;;;;2.28;2.17;;;;;;;;;;5053419;28;20698;-86
2021/06/28 09:23:32;;;;;;;2.53;2.42;;;;;;;;;;5053459;28;20224;-86
2021/06/28 09:26:00;;;;;;;2.80;2.60;;;;;;;;;;5053545;28;20200;-87
2021/06/28 09:28:39;;;;;;;2.30;2.20;;;;;;;;;;5053469;28;20236;-86
2021/06/28 09:31:09;;;;;;;2.33;2.22;;;;;;;;;;5053267;28;20663;-87
2021/06/28 09:33:37;;;;;;;2.30;2.20;;;;;;;;;;5053857;28;20201;-87
2021/06/28 09:36:20;;;;;;;2.10;2.00;;;;;;;;;;5053655;28;20585;-87
2021/06/28 09:38:47;;;;;;;2.33;2.20;;;;;;;;;;5053817;28;20596;-87
2021/06/28 09:41:25;;;;;;;1.90;1.73;;;;;;;;;;5053839;28;20236;-87
2021/06/28 09:43:59;;;;;;;1.80;1.70;;;;;;;;;;5053681;28;20192;-87
2021/06/28 09:46:29;;;;;;;1.85;1.75;;;;;;;;;;5053689;28;20235;-87
2021/06/28 09:48:57;;;;;;;1.90;1.80;;;;;;;;;;5053564;28;20247;-87
2021/06/28 09:51:27;;;;;;;2.45;2.25;;;;;;;;;;5053418;28;20201;-87
2021/06/28 09:53:57;;;;;;;1.75;1.65;;;;;;;;;;5053312;28;20206;-87
2021/06/28 09:56:33;;;;;;;2.17;2.08;;;;;;;;;;5052896;28;20208;-87
2021/06/28 09:59:20;;;;;;;2.30;2.20;;;;;;;;;;5052893;28;20283;-87
2021/06/28 10:01:50;;;;;;;3.05;2.75;;;;;;;;;;5052669;28;20228;-87
2021/06/28 10:04:41;;;;;;;2.63;2.42;;;;;;;;;;5052961;28;20217;-87
2021/06/28 10:07:26;;;;;;;2.13;2.03;;;;;;;;;;5052680;28;20272;-87
2021/06/28 10:10:13;;;;;;;1.70;1.60;;;;;;;;;;5052939;28;20206;-87
2021/06/28 10:20:20;;;;;;;1.90;1.80;;;;;;;;;;4986587;28;20273;-87
2021/06/28 10:22:50;;;;;;;2.20;2.10;;;;;;;;;;5052409;28;20201;-86
2021/06/28 10:25:21;;;;;;;1.75;1.60;;;;;;;;;;5052363;28;20190;-86
2021/06/28 10:27:50;;;;;;;2.50;2.30;;;;;;;;;;5050782;28;20284;-86
2021/06/28 10:30:20;;;;;;;1.70;1.60;;;;;;;;;;5052430;28;20190;-86
2021/06/28 10:32:51;;;;;;;1.83;1.73;;;;;;;;;;5052876;28;20190;-86
2021/06/28 10:35:28;;;;;;;1.77;1.67;;;;;;;;;;5052329;28;20174;-86
2021/06/28 10:37:59;;;;;;;1.65;1.55;;;;;;;;;;5051828;28;20217;-86
2021/06/28 10:40:27;;;;;;;2.00;1.90;;;;;;;;;;5051102;28;20197;-86
2021/06/28 10:42:58;;;;;;;2.00;1.90;;;;;;;;;;5052624;28;20189;-84
2021/06/28 10:45:40;;;;;;;2.13;2.03;;;;;;;;;;5052426;28;20181;-85
2021/06/28 10:48:11;;;;;;;2.00;1.90;;;;;;;;;;5052162;28;20217;-85
2021/06/28 10:50:57;;;;;;;1.95;1.85;;;;;;;;;;5051612;28;20626;-86
2021/06/28 10:54:16;;;;;;;1.95;1.85;;;;;;;;;;5051577;28;20190;-85
2021/06/28 10:56:55;;;;;;;1.73;1.63;;;;;;;;;;4987962;28;20556;-86
2021/06/28 10:59:25;;;;;;;1.63;1.52;;;;;;;;;;4997186;28;20220;-85
2021/06/28 11:02:08;;;;;;;1.60;1.50;;;;;;;;;;5041656;28;20215;-85
2021/06/28 11:04:38;;;;;;;1.60;1.50;;;;;;;;;;5031474;28;20206;-86
2021/06/28 11:07:18;;;;;;;1.85;1.75;;;;;;;;;;5031509;28;20226;-85
2021/06/28 11:09:51;;;;;;;1.95;1.85;;;;;;;;;;5031434;28;20204;-85
2021/06/28 11:12:28;;;;;;;1.70;1.60;;;;;;;;;;5031788;28;20182;-85
2021/06/28 11:15:09;;;;;;;1.85;1.75;;;;;;;;;;5033156;28;20186;-86
2021/06/28 11:17:50;;;;;;;2.17;2.08;;;;;;;;;;5037669;28;20222;-86
2021/06/28 11:20:31;;;;;;;2.13;2.03;;;;;;;;;;5031008;28;20209;-85
2021/06/28 11:23:16;;;;;;;1.85;1.75;;;;;;;;;;5032067;28;20205;-86
2021/06/28 11:25:47;;;;;;;2.30;2.20;;;;;;;;;;5050196;28;20640;-86
2021/06/28 11:28:27;;;;;;;2.42;2.22;;;;;;;;;;5051721;28;20699;-86
2021/06/28 11:31:07;;;;;;;2.50;2.40;;;;;;;;;;5052168;28;20619;-86
2021/06/28 11:33:41;;;;;;;2.47;2.38;;;;;;;;;;5037375;28;20190;-85
2021/06/28 11:36:40;;;;;;;2.83;2.63;;;;;;;;;;5031963;28;20193;-86
2021/06/28 11:39:31;;;;;;;2.38;2.28;;;;;;;;;;5032354;28;21230;-86
2021/06/28 11:42:22;;;;;;;2.90;2.78;;;;;;;;;;5050450;28;20281;-85
2021/06/28 11:44:53;;;;;;;2.95;2.75;;;;;;;;;;5053200;28;20202;-87
2021/06/28 11:47:59;;;;;;;2.88;2.70;;;;;;;;;;5041259;28;20258;-86
2021/06/28 11:50:32;;;;;;;2.58;2.45;;;;;;;;;;5047382;28;20268;-86
2021/06/28 11:53:01;;;;;;;2.88;2.67;;;;;;;;;;5050445;28;20182;-85
2021/06/28 11:55:32;;;;;;;2.85;2.65;;;;;;;;;;5049302;28;20197;-86
2021/06/28 11:58:00;;;;;;;3.55;3.35;;;;;;;;;;5050460;28;20604;-85
2021/06/28 12:00:29;;;;;;;3.33;3.13;;;;;;;;;;5048477;28;20186;-85
2021/06/28 12:03:18;;;;;;;3.63;3.42;;;;;;;;;;5030867;28;20297;-85
2021/06/28 12:05:47;;;;;;;3.88;3.58;;;;;;;;;;5031244;28;20197;-86
2021/06/28 12:08:24;;;;;;;3.33;3.13;;;;;;;;;;5031793;28;20948;-85
2021/06/28 12:10:58;;;;;;;3.35;3.15;;;;;;;;;;5032012;28;20197;-85
2021/06/28 12:13:34;;;;;;;2.60;2.50;;;;;;;;;;5030548;28;20736;-85
2021/06/28 12:16:23;;;;;;;2.63;2.42;;;;;;;;;;5029614;28;20183;-86
2021/06/28 12:19:05;;;;;;;2.45;2.35;;;;;;;;;;5030332;28;20205;-86
2021/06/28 12:21:36;;;;;;;2.30;2.15;;;;;;;;;;5030518;28;20580;-86
2021/06/28 12:24:11;;;;;;;1.83;1.73;;;;;;;;;;5030441;28;20197;-86
2021/06/28 12:26:42;;;;;;;2.72;2.28;;;;;;;;;;5030650;28;20566;-85
2021/06/28 12:29:37;;;;;;;2.50;2.40;;;;;;;;;;5030982;28;20202;-86
2021/06/28 12:32:21;;;;;;;2.30;2.20;;;;;;;;;;5031471;28;20215;-86
2021/06/28 12:34:52;;;;;;;2.80;2.60;;;;;;;;;;5031667;28;20187;-86
2021/06/28 12:37:30;;;;;;;2.38;2.20;;;;;;;;;;5109522;22;20235;-85
2021/06/28 12:40:17;;;;;;;2.53;2.33;;;;;;;;;;5110467;28;20539;-85
2021/06/28 12:42:48;;;;;;;2.70;2.50;;;;;;;;;;5109570;28;20228;-85
2021/06/28 12:45:19;;;;;;;2.25;2.15;;;;;;;;;;5110008;28;20199;-85
2021/06/28 12:47:50;;;;;;;2.00;1.90;;;;;;;;;;5110158;28;20226;-85
2021/06/28 12:50:20;;;;;;;2.05;1.95;;;;;;;;;;5110892;28;20199;-85
2021/06/28 12:52:49;;;;;;;2.08;1.98;;;;;;;;;;5113673;28;20199;-85
2021/06/28 12:55:23;;;;;;;2.78;2.58;;;;;;;;;;5113471;28;20214;-85
2021/06/28 12:58:04;;;;;;;2.58;2.47;;;;;;;;;;5113351;28;20743;-85
2021/06/28 13:00:35;;;;;;;2.30;2.20;;;;;;;;;;5113751;28;20194;-85
2021/06/28 13:03:07;;;;;;;2.05;1.95;;;;;;;;;;5113503;28;20215;-85
2021/06/28 13:05:48;;;;;;;2.10;2.00;;;;;;;;;;5113479;28;20195;-85
2021/06/28 13:08:26;;;;;;;2.65;2.47;;;;;;;;;;5113519;28;20203;-85
2021/06/28 13:11:11;;;;;;;2.95;2.75;;;;;;;;;;5113402;28;20314;-85
2021/06/28 13:13:52;;;;;;;3.67;3.42;;;;;;;;;;5113170;28;20270;-86
2021/06/28 13:16:35;;;;;;;2.75;2.60;;;;;;;;;;5113156;28;20228;-85
2021/06/28 13:19:09;;;;;;;2.35;2.25;;;;;;;;;;5113523;28;20195;-85
2021/06/28 13:21:42;;;;;;;3.05;2.85;;;;;;;;;;5113097;28;20180;-85
2021/06/28 13:24:17;;;;;;;3.13;2.92;;;;;;;;;;5113275;28;20214;-85
2021/06/28 13:26:45;;;;;;;3.22;3.03;;;;;;;;;;5112862;28;20317;-86
2021/06/28 13:29:17;;;;;;;2.75;2.60;;;;;;;;;;5113498;28;20210;-86
2021/06/28 13:31:57;;;;;;;3.40;3.10;;;;;;;;;;5112922;28;20199;-84
2021/06/28 13:34:28;;;;;;;2.53;2.42;;;;;;;;;;5112939;28;20665;-84
2021/06/28 13:37:10;;;;;;;2.33;2.20;;;;;;;;;;5112483;28;20220;-86
2021/06/28 13:39:41;;;;;;;2.88;2.67;;;;;;;;;;5112857;28;20567;-85
2021/06/28 13:42:24;;;;;;;2.83;2.65;;;;;;;;;;5112843;28;20203;-85
2021/06/28 13:45:16;;;;;;;2.47;2.38;;;;;;;;;;5112771;28;20200;-85
2021/06/28 13:47:59;;;;;;;2.17;2.08;;;;;;;;;;5112664;28;20227;-85
2021/06/28 13:50:28;;;;;;;2.33;2.22;;;;;;;;;;5112675;28;20194;-84
2021/06/28 13:52:57;;;;;;;2.53;2.42;;;;;;;;;;5112339;28;20196;-86
2021/06/28 13:55:25;;;;;;;3.00;2.80;;;;;;;;;;5112377;28;20196;-86
2021/06/28 13:57:56;;;;;;;2.60;2.50;;;;;;;;;;5112193;28;20272;-86
2021/06/28 14:00:28;;;;;;;2.92;2.72;;;;;;;;;;5112312;28;20203;-86
2021/06/28 14:02:56;;;;;;;2.80;2.60;;;;;;;;;;5111906;28;20681;-86
2021/06/28 14:05:24;;;;;;;2.15;2.05;;;;;;;;;;5112426;28;20198;-86
2021/06/28 14:07:51;;;;;;;2.47;2.38;;;;;;;;;;5112126;28;20604;-85
2021/06/28 14:10:19;;;;;;;2.58;2.47;;;;;;;;;;5112077;28;20186;-86
2021/06/28 14:12:46;;;;;;;2.28;2.17;;;;;;;;;;5111920;28;20204;-86
2021/06/28 14:15:16;;;;;;;2.15;2.05;;;;;;;;;;5112171;28;20669;-86
2021/06/28 14:17:45;;;;;;;2.70;2.50;;;;;;;;;;5111839;28;20265;-86
2021/06/28 14:20:19;;;;;;;2.38;2.22;;;;;;;;;;5112078;28;20191;-86
2021/06/28 14:22:49;;;;;;;2.33;2.22;;;;;;;;;;5111955;28;20222;-86
2021/06/28 14:25:18;;;;;;;2.65;2.55;;;;;;;;;;5112125;28;20184;-86
2021/06/28 14:27:48;;;;;;;3.22;3.03;;;;;;;;;;5112200;28;20224;-86
2021/06/28 14:30:20;;;;;;;2.50;2.40;;;;;;;;;;5112773;28;20184;-86
2021/06/28 14:32:50;;;;;;;2.85;2.65;;;;;;;;;;5112008;28;20290;-86
2021/06/28 14:35:18;;;;;;;2.67;2.47;;;;;;;;;;5111900;28;20590;-86
2021/06/28 14:37:46;;;;;;;3.20;3.00;;;;;;;;;;5111513;28;20236;-86
2021/06/28 14:40:15;;;;;;;2.80;2.60;;;;;;;;;;5112813;28;20199;-86
2021/06/28 14:42:43;;;;;;;3.13;2.92;;;;;;;;;;5112063;28;20199;-86
2021/06/28 14:45:13;;;;;;;3.13;2.92;;;;;;;;;;5111770;28;20187;-86
2021/06/28 14:47:41;;;;;;;3.33;3.13;;;;;;;;;;5112204;28;20226;-86
2021/06/28 14:50:11;;;;;;;3.15;2.95;;;;;;;;;;5112124;28;20571;-87
2021/06/28 14:52:38;;;;;;;2.80;2.60;;;;;;;;;;5111804;28;20202;-86
2021/06/28 14:55:08;;;;;;;3.30;3.10;;;;;;;;;;5111571;28;20192;-87
2021/06/28 14:57:36;;;;;;;3.13;2.83;;;;;;;;;;5111532;28;20220;-87
2021/06/28 15:00:06;;;;;;;3.90;3.67;;;;;;;;;;5111840;28;20185;-85
2021/06/28 15:02:33;;;;;;;3.40;3.20;;;;;;;;;;5111588;28;20200;-86
2021/06/28 15:05:01;;;;;;;3.13;2.92;;;;;;;;;;5111561;28;20230;-86
2021/06/28 15:07:30;;;;;;;3.08;2.88;;;;;;;;;;5110823;28;20700;-85
2021/06/28 15:09:57;;;;;;;2.85;2.65;;;;;;;;;;5111181;28;20494;-86
2021/06/28 15:12:25;;;;;;;3.47;3.28;;;;;;;;;;5061476;28;20621;-83
2021/06/28 15:14:52;;;;;;;3.40;3.20;;;;;;;;;;5111007;28;20279;-85
2021/06/28 15:17:20;;;;;;;3.33;3.13;;;;;;;;;;5111015;28;20230;-86